sensor_id;sensor_type;location;lat;lon;timestamp;temperature;humidity
20504;DHT22;10410;51.046;6.980;2023-07-09T00:03:35;23.50;84.20
20504;DHT22;10410;51.046;6.980;2023-07-09T00:10:36;23.30;84.60
20504;DHT22;10410;51.046;6.980;2023-07-09T00:17:37;23.30;85.00
20504;DHT22;10410;51.046;6.980;2023-07-09T00:24:38;23.20;85.20
20504;DHT22;10410;51.046;6.980;2023-07-09T00:31:40;23.10;85.50
20504;DHT22;10410;51.046;6.980;2023-07-09T00:38:42;23.00;85.80
20504;DHT22;10410;51.046;6.980;2023-07-09T00:53:21;22.90;87.30
20504;DHT22;10410;51.046;6.980;2023-07-09T01:00:36;22.80;86.60
20504;DHT22;10410;51.046;6.980;2023-07-09T01:07:47;22.70;86.90
20504;DHT22;10410;51.046;6.980;2023-07-09T01:14:53;22.60;87.40
20504;DHT22;10410;51.046;6.980;2023-07-09T01:22:00;22.50;87.80
20504;DHT22;10410;51.046;6.980;2023-07-09T01:29:00;22.40;88.00
20504;DHT22;10410;51.046;6.980;2023-07-09T01:36:03;22.30;88.40
20504;DHT22;10410;51.046;6.980;2023-07-09T01:43:05;22.20;88.80
20504;DHT22;10410;51.046;6.980;2023-07-09T01:50:07;22.10;89.10
20504;DHT22;10410;51.046;6.980;2023-07-09T02:04:19;21.80;90.10
20504;DHT22;10410;51.046;6.980;2023-07-09T02:11:20;21.70;90.30
20504;DHT22;10410;51.046;6.980;2023-07-09T02:18:20;21.70;90.50
20504;DHT22;10410;51.046;6.980;2023-07-09T02:25:20;21.60;90.60
20504;DHT22;10410;51.046;6.980;2023-07-09T02:32:26;21.60;90.70
20504;DHT22;10410;51.046;6.980;2023-07-09T02:39:27;21.50;90.90
20504;DHT22;10410;51.046;6.980;2023-07-09T02:46:27;21.40;91.00
20504;DHT22;10410;51.046;6.980;2023-07-09T02:53:27;21.40;91.30
20504;DHT22;10410;51.046;6.980;2023-07-09T03:00:29;21.30;91.40
20504;DHT22;10410;51.046;6.980;2023-07-09T03:07:31;21.20;91.60
20504;DHT22;10410;51.046;6.980;2023-07-09T03:14:32;21.10;91.80
20504;DHT22;10410;51.046;6.980;2023-07-09T03:21:34;21.10;92.00
20504;DHT22;10410;51.046;6.980;2023-07-09T03:28:34;21.00;92.20
20504;DHT22;10410;51.046;6.980;2023-07-09T03:35:34;20.90;92.70
20504;DHT22;10410;51.046;6.980;2023-07-09T03:42:36;20.90;92.60
20504;DHT22;10410;51.046;6.980;2023-07-09T03:49:37;20.80;92.80
20504;DHT22;10410;51.046;6.980;2023-07-09T03:56:37;20.80;93.00
20504;DHT22;10410;51.046;6.980;2023-07-09T04:03:38;20.70;93.30
20504;DHT22;10410;51.046;6.980;2023-07-09T04:10:38;20.60;93.40
20504;DHT22;10410;51.046;6.980;2023-07-09T04:17:40;20.60;93.50
20504;DHT22;10410;51.046;6.980;2023-07-09T04:24:40;20.60;93.70
20504;DHT22;10410;51.046;6.980;2023-07-09T04:31:41;20.60;93.80
20504;DHT22;10410;51.046;6.980;2023-07-09T04:38:41;20.60;94.10
20504;DHT22;10410;51.046;6.980;2023-07-09T04:45:42;20.60;94.20
20504;DHT22;10410;51.046;6.980;2023-07-09T04:52:42;20.70;94.50
20504;DHT22;10410;51.046;6.980;2023-07-09T04:59:43;20.60;94.60
20504;DHT22;10410;51.046;6.980;2023-07-09T05:06:43;20.70;94.90
20504;DHT22;10410;51.046;6.980;2023-07-09T05:13:44;20.80;95.00
20504;DHT22;10410;51.046;6.980;2023-07-09T05:20:46;20.90;95.20
20504;DHT22;10410;51.046;6.980;2023-07-09T05:27:47;21.00;95.40
20504;DHT22;10410;51.046;6.980;2023-07-09T05:34:47;21.20;95.50
20504;DHT22;10410;51.046;6.980;2023-07-09T05:41:48;21.40;95.50
20504;DHT22;10410;51.046;6.980;2023-07-09T05:48:48;21.60;95.60
20504;DHT22;10410;51.046;6.980;2023-07-09T05:55:52;21.90;95.60
20504;DHT22;10410;51.046;6.980;2023-07-09T06:02:52;22.20;95.50
20504;DHT22;10410;51.046;6.980;2023-07-09T06:09:53;22.60;95.40
20504;DHT22;10410;51.046;6.980;2023-07-09T06:16:53;22.90;95.30
20504;DHT22;10410;51.046;6.980;2023-07-09T06:23:54;23.30;95.20
20504;DHT22;10410;51.046;6.980;2023-07-09T06:30:55;23.70;94.90
20504;DHT22;10410;51.046;6.980;2023-07-09T06:37:55;24.10;94.70
20504;DHT22;10410;51.046;6.980;2023-07-09T06:44:55;24.50;94.50
20504;DHT22;10410;51.046;6.980;2023-07-09T06:51:56;25.10;93.70
20504;DHT22;10410;51.046;6.980;2023-07-09T06:58:57;25.20;94.00
20504;DHT22;10410;51.046;6.980;2023-07-09T07:05:58;25.50;93.80
20504;DHT22;10410;51.046;6.980;2023-07-09T07:12:58;25.80;93.70
20504;DHT22;10410;51.046;6.980;2023-07-09T07:19:59;26.10;93.60
20504;DHT22;10410;51.046;6.980;2023-07-09T07:26:59;26.40;93.40
20504;DHT22;10410;51.046;6.980;2023-07-09T07:34:00;26.70;93.20
20504;DHT22;10410;51.046;6.980;2023-07-09T07:41:03;27.10;92.90
20504;DHT22;10410;51.046;6.980;2023-07-09T07:48:04;27.30;92.60
20504;DHT22;10410;51.046;6.980;2023-07-09T07:55:08;27.70;92.40
20504;DHT22;10410;51.046;6.980;2023-07-09T08:02:14;27.90;92.20
20504;DHT22;10410;51.046;6.980;2023-07-09T08:09:15;28.20;91.90
20504;DHT22;10410;51.046;6.980;2023-07-09T08:16:16;28.50;91.60
20504;DHT22;10410;51.046;6.980;2023-07-09T08:23:18;28.80;91.40
20504;DHT22;10410;51.046;6.980;2023-07-09T08:30:19;29.10;91.10
20504;DHT22;10410;51.046;6.980;2023-07-09T08:37:19;29.50;90.70
20504;DHT22;10410;51.046;6.980;2023-07-09T08:51:57;30.00;89.60
20504;DHT22;10410;51.046;6.980;2023-07-09T08:59:01;30.20;88.90
20504;DHT22;10410;51.046;6.980;2023-07-09T09:06:02;30.40;88.50
20504;DHT22;10410;51.046;6.980;2023-07-09T09:13:13;30.70;87.60
20504;DHT22;10410;51.046;6.980;2023-07-09T09:20:20;30.90;86.40
20504;DHT22;10410;51.046;6.980;2023-07-09T09:27:22;31.10;86.00
20504;DHT22;10410;51.046;6.980;2023-07-09T09:34:30;31.40;85.70
20504;DHT22;10410;51.046;6.980;2023-07-09T09:41:37;31.70;84.80
20504;DHT22;10410;51.046;6.980;2023-07-09T09:48:37;32.00;84.10
20504;DHT22;10410;51.046;6.980;2023-07-09T09:55:39;32.30;83.10
20504;DHT22;10410;51.046;6.980;2023-07-09T10:02:41;32.50;82.10
20504;DHT22;10410;51.046;6.980;2023-07-09T10:09:45;32.70;81.20
20504;DHT22;10410;51.046;6.980;2023-07-09T10:16:51;32.90;80.30
20504;DHT22;10410;51.046;6.980;2023-07-09T10:31:20;33.40;77.80
20504;DHT22;10410;51.046;6.980;2023-07-09T10:45:50;33.70;76.60
20504;DHT22;10410;51.046;6.980;2023-07-09T10:52:54;33.90;75.80
20504;DHT22;10410;51.046;6.980;2023-07-09T10:59:59;34.10;75.60
20504;DHT22;10410;51.046;6.980;2023-07-09T11:07:05;34.20;75.20
20504;DHT22;10410;51.046;6.980;2023-07-09T11:14:32;34.40;74.90
20504;DHT22;10410;51.046;6.980;2023-07-09T11:21:31;34.70;73.20
20504;DHT22;10410;51.046;6.980;2023-07-09T11:28:35;35.00;72.40
20504;DHT22;10410;51.046;6.980;2023-07-09T11:35:48;35.30;71.20
20504;DHT22;10410;51.046;6.980;2023-07-09T11:42:57;35.50;71.90
20504;DHT22;10410;51.046;6.980;2023-07-09T11:57:00;35.90;68.60
20504;DHT22;10410;51.046;6.980;2023-07-09T12:04:03;36.10;69.00
20504;DHT22;10410;51.046;6.980;2023-07-09T12:11:05;36.30;67.60
20504;DHT22;10410;51.046;6.980;2023-07-09T12:18:14;36.40;67.20
20504;DHT22;10410;51.046;6.980;2023-07-09T12:25:23;36.50;66.00
20504;DHT22;10410;51.046;6.980;2023-07-09T12:32:24;36.60;66.10
20504;DHT22;10410;51.046;6.980;2023-07-09T12:39:29;36.50;65.70
20504;DHT22;10410;51.046;6.980;2023-07-09T12:46:32;36.30;65.70
20504;DHT22;10410;51.046;6.980;2023-07-09T12:53:33;36.20;65.20
20504;DHT22;10410;51.046;6.980;2023-07-09T13:00:33;35.90;64.50
20504;DHT22;10410;51.046;6.980;2023-07-09T13:07:37;35.70;64.70
20504;DHT22;10410;51.046;6.980;2023-07-09T13:14:38;35.50;64.70
20504;DHT22;10410;51.046;6.980;2023-07-09T13:21:39;35.40;64.30
20504;DHT22;10410;51.046;6.980;2023-07-09T13:28:40;35.00;64.30
20504;DHT22;10410;51.046;6.980;2023-07-09T13:35:41;34.70;65.40
20504;DHT22;10410;51.046;6.980;2023-07-09T13:42:48;34.60;66.10
20504;DHT22;10410;51.046;6.980;2023-07-09T13:49:49;34.40;66.60
20504;DHT22;10410;51.046;6.980;2023-07-09T13:56:50;34.20;66.90
20504;DHT22;10410;51.046;6.980;2023-07-09T14:03:54;34.20;68.60
20504;DHT22;10410;51.046;6.980;2023-07-09T14:10:59;33.20;73.40
20504;DHT22;10410;51.046;6.980;2023-07-09T14:17:59;31.40;78.50
20504;DHT22;10410;51.046;6.980;2023-07-09T14:25:00;29.90;80.50
20504;DHT22;10410;51.046;6.980;2023-07-09T14:32:00;29.20;82.50
20504;DHT22;10410;51.046;6.980;2023-07-09T14:39:01;28.60;83.90
20504;DHT22;10410;51.046;6.980;2023-07-09T14:46:05;27.90;88.60
20504;DHT22;10410;51.046;6.980;2023-07-09T14:53:16;27.20;91.30
20504;DHT22;10410;51.046;6.980;2023-07-09T15:00:21;26.30;93.70
20504;DHT22;10410;51.046;6.980;2023-07-09T15:07:22;25.50;95.30
20504;DHT22;10410;51.046;6.980;2023-07-09T15:14:24;24.80;96.90
20504;DHT22;10410;51.046;6.980;2023-07-09T15:21:25;24.60;98.20
20504;DHT22;10410;51.046;6.980;2023-07-09T15:28:25;24.40;97.40
20504;DHT22;10410;51.046;6.980;2023-07-09T15:35:31;24.50;97.10
20504;DHT22;10410;51.046;6.980;2023-07-09T15:42:32;24.60;96.90
20504;DHT22;10410;51.046;6.980;2023-07-09T15:49:32;24.70;97.00
20504;DHT22;10410;51.046;6.980;2023-07-09T15:56:33;24.70;97.70
20504;DHT22;10410;51.046;6.980;2023-07-09T16:03:34;24.70;97.50
20504;DHT22;10410;51.046;6.980;2023-07-09T16:10:35;24.90;97.50
20504;DHT22;10410;51.046;6.980;2023-07-09T16:17:35;25.00;97.60
20504;DHT22;10410;51.046;6.980;2023-07-09T16:24:35;25.30;98.10
20504;DHT22;10410;51.046;6.980;2023-07-09T16:31:37;25.30;98.00
20504;DHT22;10410;51.046;6.980;2023-07-09T16:38:37;25.30;99.00
20504;DHT22;10410;51.046;6.980;2023-07-09T16:45:38;25.30;99.20
20504;DHT22;10410;51.046;6.980;2023-07-09T16:52:38;25.20;99.60
20504;DHT22;10410;51.046;6.980;2023-07-09T16:59:39;25.20;99.60
20504;DHT22;10410;51.046;6.980;2023-07-09T17:06:42;25.30;99.90
20504;DHT22;10410;51.046;6.980;2023-07-09T17:13:42;25.40;99.90
20504;DHT22;10410;51.046;6.980;2023-07-09T17:20:42;25.40;99.90
20504;DHT22;10410;51.046;6.980;2023-07-09T17:27:43;25.50;99.90
20504;DHT22;10410;51.046;6.980;2023-07-09T17:34:43;25.60;99.90
20504;DHT22;10410;51.046;6.980;2023-07-09T17:41:44;25.80;99.90
20504;DHT22;10410;51.046;6.980;2023-07-09T17:48:46;25.90;99.90
20504;DHT22;10410;51.046;6.980;2023-07-09T17:55:47;25.90;99.90
20504;DHT22;10410;51.046;6.980;2023-07-09T18:03:01;25.80;99.90
20504;DHT22;10410;51.046;6.980;2023-07-09T18:10:06;25.80;99.90
20504;DHT22;10410;51.046;6.980;2023-07-09T18:17:17;25.80;99.90
20504;DHT22;10410;51.046;6.980;2023-07-09T18:24:22;25.90;99.90
20504;DHT22;10410;51.046;6.980;2023-07-09T18:31:22;26.10;99.90
20504;DHT22;10410;51.046;6.980;2023-07-09T18:38:23;26.40;99.90
20504;DHT22;10410;51.046;6.980;2023-07-09T18:45:26;26.60;99.90
20504;DHT22;10410;51.046;6.980;2023-07-09T18:52:28;26.50;99.90
20504;DHT22;10410;51.046;6.980;2023-07-09T18:59:28;26.20;99.90
20504;DHT22;10410;51.046;6.980;2023-07-09T19:06:33;26.10;99.90
20504;DHT22;10410;51.046;6.980;2023-07-09T19:13:33;25.90;99.90
20504;DHT22;10410;51.046;6.980;2023-07-09T19:20:33;25.70;99.90
20504;DHT22;10410;51.046;6.980;2023-07-09T19:27:34;25.50;99.90
20504;DHT22;10410;51.046;6.980;2023-07-09T19:34:36;25.30;99.90
20504;DHT22;10410;51.046;6.980;2023-07-09T19:41:41;24.90;99.90
20504;DHT22;10410;51.046;6.980;2023-07-09T19:48:41;24.70;99.90
20504;DHT22;10410;51.046;6.980;2023-07-09T19:55:42;24.50;99.90
20504;DHT22;10410;51.046;6.980;2023-07-09T20:02:43;24.40;99.90
20504;DHT22;10410;51.046;6.980;2023-07-09T20:09:44;24.30;99.90
20504;DHT22;10410;51.046;6.980;2023-07-09T20:16:44;24.20;99.90
20504;DHT22;10410;51.046;6.980;2023-07-09T20:23:45;24.10;99.90
20504;DHT22;10410;51.046;6.980;2023-07-09T20:30:46;24.00;99.90
20504;DHT22;10410;51.046;6.980;2023-07-09T20:37:49;23.90;99.90
20504;DHT22;10410;51.046;6.980;2023-07-09T20:44:50;23.70;99.90
20504;DHT22;10410;51.046;6.980;2023-07-09T20:51:54;23.60;99.90
20504;DHT22;10410;51.046;6.980;2023-07-09T20:58:55;23.50;99.90
20504;DHT22;10410;51.046;6.980;2023-07-09T21:05:56;23.30;99.90
20504;DHT22;10410;51.046;6.980;2023-07-09T21:12:56;23.20;99.90
20504;DHT22;10410;51.046;6.980;2023-07-09T21:19:56;23.20;99.90
20504;DHT22;10410;51.046;6.980;2023-07-09T21:26:59;23.10;99.90
20504;DHT22;10410;51.046;6.980;2023-07-09T21:33:59;23.00;99.90
20504;DHT22;10410;51.046;6.980;2023-07-09T21:41:00;23.00;99.90
20504;DHT22;10410;51.046;6.980;2023-07-09T21:48:03;23.00;99.90
20504;DHT22;10410;51.046;6.980;2023-07-09T21:55:14;23.00;99.90
20504;DHT22;10410;51.046;6.980;2023-07-09T22:02:28;22.80;99.90
20504;DHT22;10410;51.046;6.980;2023-07-09T22:09:30;22.80;99.90
20504;DHT22;10410;51.046;6.980;2023-07-09T22:16:30;22.70;99.90
20504;DHT22;10410;51.046;6.980;2023-07-09T22:23:31;22.60;99.90
20504;DHT22;10410;51.046;6.980;2023-07-09T22:30:31;22.60;99.90
20504;DHT22;10410;51.046;6.980;2023-07-09T22:37:32;22.50;99.90
20504;DHT22;10410;51.046;6.980;2023-07-09T22:44:34;22.40;99.90
20504;DHT22;10410;51.046;6.980;2023-07-09T22:51:34;22.30;99.90
20504;DHT22;10410;51.046;6.980;2023-07-09T22:58:35;22.40;99.90
20504;DHT22;10410;51.046;6.980;2023-07-09T23:05:36;22.40;99.90
20504;DHT22;10410;51.046;6.980;2023-07-09T23:12:38;22.50;99.90
20504;DHT22;10410;51.046;6.980;2023-07-09T23:19:39;22.50;99.90
20504;DHT22;10410;51.046;6.980;2023-07-09T23:26:49;22.50;99.90
20504;DHT22;10410;51.046;6.980;2023-07-09T23:33:49;22.40;99.90
20504;DHT22;10410;51.046;6.980;2023-07-09T23:40:50;22.30;99.90
20504;DHT22;10410;51.046;6.980;2023-07-09T23:47:54;22.30;99.90
20504;DHT22;10410;51.046;6.980;2023-07-09T23:54:55;22.20;99.90
